Elrod, Alabama
Current Conditions -  °F | °C
As of 11:53 AM on Friday 21 Nov 2014 (Local Time) from KTCL Reporting Station
Clear Clear  
Wind Chill: 65°   Ceiling: Unl
Heat Index: 65°   Visibility: 10mi
Dew Point: 44°   Wind: 0mph
Humidity: 47%   Direction: NA
Pressure: 30.35"   Gusts: NA
Location:  33.26°N, 87.79°W
Report Text: KTCL 211753Z 00000KT 10SM CLR 18/07 A3035 RMK AO2 SLP275 T01830067 10183 20050 58015
Loading
Personal Weather Stations






























Interactive Weather Map New forecast layout! Learn more

10-Day Weather Forecast

Advertisements
Track Severe Weather on mobile